sensor_id;sensor_type;location;lat;lon;timestamp;P1;durP1;ratioP1;P2;durP2;ratioP2
57113;SDS011;42994;51.606;9.988;2023-06-10T00:00:02;8.27;;;7.05;;
57113;SDS011;42994;51.606;9.988;2023-06-10T00:02:37;9.50;;;7.30;;
57113;SDS011;42994;51.606;9.988;2023-06-10T00:05:04;7.78;;;7.03;;
57113;SDS011;42994;51.606;9.988;2023-06-10T00:07:32;10.13;;;7.63;;
57113;SDS011;42994;51.606;9.988;2023-06-10T00:10:03;9.80;;;6.47;;
57113;SDS011;42994;51.606;9.988;2023-06-10T00:12:30;9.85;;;7.47;;
57113;SDS011;42994;51.606;9.988;2023-06-10T00:15:05;14.13;;;7.20;;
57113;SDS011;42994;51.606;9.988;2023-06-10T00:17:33;9.23;;;7.30;;
57113;SDS011;42994;51.606;9.988;2023-06-10T00:20:04;16.60;;;7.30;;
57113;SDS011;42994;51.606;9.988;2023-06-10T00:22:34;10.73;;;7.53;;
57113;SDS011;42994;51.606;9.988;2023-06-10T00:25:00;7.30;;;6.50;;
57113;SDS011;42994;51.606;9.988;2023-06-10T00:27:29;10.00;;;7.80;;
57113;SDS011;42994;51.606;9.988;2023-06-10T00:30:00;8.35;;;7.00;;
57113;SDS011;42994;51.606;9.988;2023-06-10T00:32:28;10.77;;;7.30;;
57113;SDS011;42994;51.606;9.988;2023-06-10T00:34:55;10.23;;;7.40;;
57113;SDS011;42994;51.606;9.988;2023-06-10T00:37:22;10.80;;;6.82;;
57113;SDS011;42994;51.606;9.988;2023-06-10T00:39:49;15.30;;;6.25;;
57113;SDS011;42994;51.606;9.988;2023-06-10T00:42:15;8.20;;;6.03;;
57113;SDS011;42994;51.606;9.988;2023-06-10T00:44:42;6.47;;;5.88;;
57113;SDS011;42994;51.606;9.988;2023-06-10T00:47:09;6.85;;;6.15;;
57113;SDS011;42994;51.606;9.988;2023-06-10T00:49:37;10.18;;;5.80;;
57113;SDS011;42994;51.606;9.988;2023-06-10T00:52:03;8.95;;;6.57;;
57113;SDS011;42994;51.606;9.988;2023-06-10T00:54:32;7.93;;;6.28;;
57113;SDS011;42994;51.606;9.988;2023-06-10T00:57:00;12.95;;;6.82;;
57113;SDS011;42994;51.606;9.988;2023-06-10T00:59:27;10.30;;;7.07;;
57113;SDS011;42994;51.606;9.988;2023-06-10T01:01:55;10.05;;;6.75;;
57113;SDS011;42994;51.606;9.988;2023-06-10T01:04:22;9.98;;;7.85;;
57113;SDS011;42994;51.606;9.988;2023-06-10T01:06:54;11.23;;;6.45;;
57113;SDS011;42994;51.606;9.988;2023-06-10T01:09:29;8.95;;;6.57;;
57113;SDS011;42994;51.606;9.988;2023-06-10T01:12:05;12.20;;;7.07;;
57113;SDS011;42994;51.606;9.988;2023-06-10T01:14:38;11.50;;;6.57;;
57113;SDS011;42994;51.606;9.988;2023-06-10T01:17:10;8.02;;;6.82;;
57113;SDS011;42994;51.606;9.988;2023-06-10T01:19:37;9.32;;;6.15;;
57113;SDS011;42994;51.606;9.988;2023-06-10T01:22:05;8.10;;;6.32;;
57113;SDS011;42994;51.606;9.988;2023-06-10T01:24:32;12.15;;;6.70;;
57113;SDS011;42994;51.606;9.988;2023-06-10T01:26:59;8.13;;;5.90;;
57113;SDS011;42994;51.606;9.988;2023-06-10T01:29:28;9.88;;;6.63;;
57113;SDS011;42994;51.606;9.988;2023-06-10T01:32:01;10.73;;;7.00;;
57113;SDS011;42994;51.606;9.988;2023-06-10T01:34:34;6.63;;;5.88;;
57113;SDS011;42994;51.606;9.988;2023-06-10T01:37:02;9.50;;;6.22;;
57113;SDS011;42994;51.606;9.988;2023-06-10T01:39:32;7.88;;;5.93;;
57113;SDS011;42994;51.606;9.988;2023-06-10T01:41:59;9.57;;;5.90;;
57113;SDS011;42994;51.606;9.988;2023-06-10T01:44:29;10.50;;;5.47;;
57113;SDS011;42994;51.606;9.988;2023-06-10T01:46:55;11.45;;;5.93;;
57113;SDS011;42994;51.606;9.988;2023-06-10T01:49:22;9.40;;;6.07;;
57113;SDS011;42994;51.606;9.988;2023-06-10T01:51:49;8.07;;;6.20;;
57113;SDS011;42994;51.606;9.988;2023-06-10T01:54:16;10.18;;;6.82;;
57113;SDS011;42994;51.606;9.988;2023-06-10T01:56:44;9.13;;;6.50;;
57113;SDS011;42994;51.606;9.988;2023-06-10T01:59:10;8.20;;;6.65;;
57113;SDS011;42994;51.606;9.988;2023-06-10T02:01:37;12.93;;;6.10;;
57113;SDS011;42994;51.606;9.988;2023-06-10T02:04:03;11.93;;;5.88;;
57113;SDS011;42994;51.606;9.988;2023-06-10T02:06:31;11.27;;;6.15;;
57113;SDS011;42994;51.606;9.988;2023-06-10T02:08:57;6.38;;;5.15;;
57113;SDS011;42994;51.606;9.988;2023-06-10T02:11:26;9.63;;;6.53;;
57113;SDS011;42994;51.606;9.988;2023-06-10T02:13:54;13.60;;;6.30;;
57113;SDS011;42994;51.606;9.988;2023-06-10T02:16:21;11.30;;;5.43;;
57113;SDS011;42994;51.606;9.988;2023-06-10T02:18:47;7.93;;;5.88;;
57113;SDS011;42994;51.606;9.988;2023-06-10T02:21:14;9.35;;;6.50;;
57113;SDS011;42994;51.606;9.988;2023-06-10T02:23:41;11.80;;;6.55;;
57113;SDS011;42994;51.606;9.988;2023-06-10T02:26:07;9.35;;;5.40;;
57113;SDS011;42994;51.606;9.988;2023-06-10T02:28:34;6.38;;;5.68;;
57113;SDS011;42994;51.606;9.988;2023-06-10T02:31:02;8.40;;;6.43;;
57113;SDS011;42994;51.606;9.988;2023-06-10T02:33:29;7.95;;;5.05;;
57113;SDS011;42994;51.606;9.988;2023-06-10T02:35:56;13.07;;;5.78;;
57113;SDS011;42994;51.606;9.988;2023-06-10T02:38:24;11.35;;;6.65;;
57113;SDS011;42994;51.606;9.988;2023-06-10T02:40:52;10.38;;;6.75;;
57113;SDS011;42994;51.606;9.988;2023-06-10T02:43:18;12.13;;;6.55;;
57113;SDS011;42994;51.606;9.988;2023-06-10T02:45:47;8.88;;;6.10;;
57113;SDS011;42994;51.606;9.988;2023-06-10T02:48:16;13.32;;;5.80;;
57113;SDS011;42994;51.606;9.988;2023-06-10T02:50:42;13.68;;;6.35;;
57113;SDS011;42994;51.606;9.988;2023-06-10T02:53:27;6.32;;;5.10;;
57113;SDS011;42994;51.606;9.988;2023-06-10T02:56:15;7.00;;;5.82;;
57113;SDS011;42994;51.606;9.988;2023-06-10T03:02:14;7.25;;;5.70;;
57113;SDS011;42994;51.606;9.988;2023-06-10T03:04:57;7.18;;;5.72;;
57113;SDS011;42994;51.606;9.988;2023-06-10T03:10:37;9.00;;;6.63;;
57113;SDS011;42994;51.606;9.988;2023-06-10T03:13:20;9.40;;;5.63;;
57113;SDS011;42994;51.606;9.988;2023-06-10T03:15:53;9.88;;;5.55;;
57113;SDS011;42994;51.606;9.988;2023-06-10T03:18:26;7.72;;;4.82;;
57113;SDS011;42994;51.606;9.988;2023-06-10T03:21:03;7.85;;;5.00;;
57113;SDS011;42994;51.606;9.988;2023-06-10T03:23:30;10.13;;;6.55;;
57113;SDS011;42994;51.606;9.988;2023-06-10T03:25:57;8.50;;;5.82;;
57113;SDS011;42994;51.606;9.988;2023-06-10T03:28:24;9.77;;;5.88;;
57113;SDS011;42994;51.606;9.988;2023-06-10T03:30:51;8.35;;;4.88;;
57113;SDS011;42994;51.606;9.988;2023-06-10T03:33:21;8.75;;;5.22;;
57113;SDS011;42994;51.606;9.988;2023-06-10T03:35:48;12.55;;;6.00;;
57113;SDS011;42994;51.606;9.988;2023-06-10T03:38:16;6.70;;;5.28;;
57113;SDS011;42994;51.606;9.988;2023-06-10T03:40:43;9.23;;;5.15;;
57113;SDS011;42994;51.606;9.988;2023-06-10T03:43:10;8.45;;;5.20;;
57113;SDS011;42994;51.606;9.988;2023-06-10T03:45:37;10.32;;;5.40;;
57113;SDS011;42994;51.606;9.988;2023-06-10T03:48:04;8.98;;;5.15;;
57113;SDS011;42994;51.606;9.988;2023-06-10T03:50:40;6.28;;;5.40;;
57113;SDS011;42994;51.606;9.988;2023-06-10T03:53:07;8.18;;;5.45;;
57113;SDS011;42994;51.606;9.988;2023-06-10T03:55:36;6.70;;;5.28;;
57113;SDS011;42994;51.606;9.988;2023-06-10T03:58:04;9.35;;;4.57;;
57113;SDS011;42994;51.606;9.988;2023-06-10T04:00:30;9.85;;;4.53;;
57113;SDS011;42994;51.606;9.988;2023-06-10T04:03:06;5.20;;;4.70;;
57113;SDS011;42994;51.606;9.988;2023-06-10T04:05:37;7.35;;;5.15;;
57113;SDS011;42994;51.606;9.988;2023-06-10T04:08:03;10.82;;;5.78;;
57113;SDS011;42994;51.606;9.988;2023-06-10T04:10:30;7.70;;;5.10;;
57113;SDS011;42994;51.606;9.988;2023-06-10T04:12:58;9.93;;;5.28;;
57113;SDS011;42994;51.606;9.988;2023-06-10T04:15:29;12.35;;;5.25;;
57113;SDS011;42994;51.606;9.988;2023-06-10T04:17:58;7.15;;;5.40;;
57113;SDS011;42994;51.606;9.988;2023-06-10T04:20:26;9.48;;;5.72;;
57113;SDS011;42994;51.606;9.988;2023-06-10T04:22:52;9.93;;;5.35;;
57113;SDS011;42994;51.606;9.988;2023-06-10T04:25:19;10.80;;;5.35;;
57113;SDS011;42994;51.606;9.988;2023-06-10T04:27:48;7.13;;;5.15;;
57113;SDS011;42994;51.606;9.988;2023-06-10T04:30:16;11.20;;;5.90;;
57113;SDS011;42994;51.606;9.988;2023-06-10T04:32:43;6.00;;;5.35;;
57113;SDS011;42994;51.606;9.988;2023-06-10T04:35:15;11.40;;;5.90;;
57113;SDS011;42994;51.606;9.988;2023-06-10T04:37:42;9.45;;;5.47;;
57113;SDS011;42994;51.606;9.988;2023-06-10T04:40:09;7.75;;;5.88;;
57113;SDS011;42994;51.606;9.988;2023-06-10T04:42:36;9.65;;;5.47;;
57113;SDS011;42994;51.606;9.988;2023-06-10T04:45:04;9.45;;;4.82;;
57113;SDS011;42994;51.606;9.988;2023-06-10T04:47:34;7.03;;;4.68;;
57113;SDS011;42994;51.606;9.988;2023-06-10T04:50:01;6.45;;;5.13;;
57113;SDS011;42994;51.606;9.988;2023-06-10T04:52:29;8.70;;;5.70;;
57113;SDS011;42994;51.606;9.988;2023-06-10T04:54:56;6.88;;;5.03;;
57113;SDS011;42994;51.606;9.988;2023-06-10T04:57:23;13.70;;;5.55;;
57113;SDS011;42994;51.606;9.988;2023-06-10T04:59:51;7.38;;;4.80;;
57113;SDS011;42994;51.606;9.988;2023-06-10T05:02:18;11.80;;;5.65;;
57113;SDS011;42994;51.606;9.988;2023-06-10T05:04:46;7.05;;;5.18;;
57113;SDS011;42994;51.606;9.988;2023-06-10T05:07:12;9.02;;;5.45;;
57113;SDS011;42994;51.606;9.988;2023-06-10T05:09:39;6.68;;;5.57;;
57113;SDS011;42994;51.606;9.988;2023-06-10T05:12:06;7.40;;;4.18;;
57113;SDS011;42994;51.606;9.988;2023-06-10T05:14:34;12.18;;;4.95;;
57113;SDS011;42994;51.606;9.988;2023-06-10T05:17:00;14.88;;;5.78;;
57113;SDS011;42994;51.606;9.988;2023-06-10T05:19:27;16.13;;;5.55;;
57113;SDS011;42994;51.606;9.988;2023-06-10T05:21:55;9.70;;;5.13;;
57113;SDS011;42994;51.606;9.988;2023-06-10T05:24:21;7.25;;;4.90;;
57113;SDS011;42994;51.606;9.988;2023-06-10T05:26:48;8.18;;;5.03;;
57113;SDS011;42994;51.606;9.988;2023-06-10T05:29:15;10.95;;;5.13;;
57113;SDS011;42994;51.606;9.988;2023-06-10T05:31:41;8.25;;;4.97;;
57113;SDS011;42994;51.606;9.988;2023-06-10T05:34:08;9.40;;;5.10;;
57113;SDS011;42994;51.606;9.988;2023-06-10T05:36:35;10.75;;;5.80;;
57113;SDS011;42994;51.606;9.988;2023-06-10T05:39:03;8.45;;;5.25;;
57113;SDS011;42994;51.606;9.988;2023-06-10T05:41:29;11.05;;;5.28;;
57113;SDS011;42994;51.606;9.988;2023-06-10T05:43:56;7.85;;;5.30;;
57113;SDS011;42994;51.606;9.988;2023-06-10T05:46:22;10.70;;;5.78;;
57113;SDS011;42994;51.606;9.988;2023-06-10T05:48:49;15.65;;;5.35;;
57113;SDS011;42994;51.606;9.988;2023-06-10T05:51:16;10.25;;;6.50;;
57113;SDS011;42994;51.606;9.988;2023-06-10T05:53:42;8.23;;;5.15;;
57113;SDS011;42994;51.606;9.988;2023-06-10T05:56:12;10.18;;;5.45;;
57113;SDS011;42994;51.606;9.988;2023-06-10T05:58:39;8.50;;;4.90;;
57113;SDS011;42994;51.606;9.988;2023-06-10T06:01:06;11.63;;;4.82;;
57113;SDS011;42994;51.606;9.988;2023-06-10T06:03:32;9.95;;;5.15;;
57113;SDS011;42994;51.606;9.988;2023-06-10T06:05:59;12.90;;;5.13;;
57113;SDS011;42994;51.606;9.988;2023-06-10T06:08:26;14.57;;;6.10;;
57113;SDS011;42994;51.606;9.988;2023-06-10T06:10:52;10.25;;;6.13;;
57113;SDS011;42994;51.606;9.988;2023-06-10T06:13:20;9.63;;;6.07;;
57113;SDS011;42994;51.606;9.988;2023-06-10T06:15:47;11.85;;;5.50;;
57113;SDS011;42994;51.606;9.988;2023-06-10T06:18:13;9.77;;;6.07;;
57113;SDS011;42994;51.606;9.988;2023-06-10T06:20:40;11.98;;;6.43;;
57113;SDS011;42994;51.606;9.988;2023-06-10T06:23:07;13.90;;;6.05;;
57113;SDS011;42994;51.606;9.988;2023-06-10T06:25:35;14.32;;;6.43;;
57113;SDS011;42994;51.606;9.988;2023-06-10T06:28:03;12.07;;;5.93;;
57113;SDS011;42994;51.606;9.988;2023-06-10T06:30:31;12.70;;;5.47;;
57113;SDS011;42994;51.606;9.988;2023-06-10T06:32:58;8.93;;;4.60;;
57113;SDS011;42994;51.606;9.988;2023-06-10T06:35:25;11.32;;;4.90;;
57113;SDS011;42994;51.606;9.988;2023-06-10T06:37:51;13.98;;;4.95;;
57113;SDS011;42994;51.606;9.988;2023-06-10T06:40:24;7.57;;;5.30;;
57113;SDS011;42994;51.606;9.988;2023-06-10T06:42:50;8.23;;;4.85;;
57113;SDS011;42994;51.606;9.988;2023-06-10T06:45:37;10.45;;;5.13;;
57113;SDS011;42994;51.606;9.988;2023-06-10T06:48:04;13.80;;;4.40;;
57113;SDS011;42994;51.606;9.988;2023-06-10T06:50:31;8.98;;;4.78;;
57113;SDS011;42994;51.606;9.988;2023-06-10T06:52:58;7.22;;;4.57;;
57113;SDS011;42994;51.606;9.988;2023-06-10T06:55:24;9.30;;;4.40;;
57113;SDS011;42994;51.606;9.988;2023-06-10T06:57:51;8.48;;;4.30;;
57113;SDS011;42994;51.606;9.988;2023-06-10T07:00:18;9.70;;;4.93;;
57113;SDS011;42994;51.606;9.988;2023-06-10T07:02:46;7.28;;;4.68;;
57113;SDS011;42994;51.606;9.988;2023-06-10T07:05:13;11.68;;;4.32;;
57113;SDS011;42994;51.606;9.988;2023-06-10T07:07:39;10.20;;;4.95;;
57113;SDS011;42994;51.606;9.988;2023-06-10T07:10:07;8.05;;;4.63;;
57113;SDS011;42994;51.606;9.988;2023-06-10T07:12:34;7.03;;;4.40;;
57113;SDS011;42994;51.606;9.988;2023-06-10T07:15:00;7.97;;;4.55;;
57113;SDS011;42994;51.606;9.988;2023-06-10T07:17:27;7.90;;;4.65;;
57113;SDS011;42994;51.606;9.988;2023-06-10T07:19:55;6.68;;;4.40;;
57113;SDS011;42994;51.606;9.988;2023-06-10T07:22:22;5.97;;;3.95;;
57113;SDS011;42994;51.606;9.988;2023-06-10T07:24:49;6.63;;;4.30;;
57113;SDS011;42994;51.606;9.988;2023-06-10T07:27:17;11.25;;;4.35;;
57113;SDS011;42994;51.606;9.988;2023-06-10T07:29:43;12.60;;;4.60;;
57113;SDS011;42994;51.606;9.988;2023-06-10T07:32:10;7.88;;;4.53;;
57113;SDS011;42994;51.606;9.988;2023-06-10T07:34:36;5.47;;;4.55;;
57113;SDS011;42994;51.606;9.988;2023-06-10T07:37:05;11.07;;;4.03;;
57113;SDS011;42994;51.606;9.988;2023-06-10T07:39:31;9.25;;;4.78;;
57113;SDS011;42994;51.606;9.988;2023-06-10T07:41:58;8.05;;;4.85;;
57113;SDS011;42994;51.606;9.988;2023-06-10T07:44:25;8.85;;;4.50;;
57113;SDS011;42994;51.606;9.988;2023-06-10T07:46:52;7.80;;;4.38;;
57113;SDS011;42994;51.606;9.988;2023-06-10T07:49:18;8.82;;;4.90;;
57113;SDS011;42994;51.606;9.988;2023-06-10T07:51:45;10.45;;;5.43;;
57113;SDS011;42994;51.606;9.988;2023-06-10T07:54:13;8.38;;;4.97;;
57113;SDS011;42994;51.606;9.988;2023-06-10T07:56:40;9.02;;;5.07;;
57113;SDS011;42994;51.606;9.988;2023-06-10T07:59:06;6.80;;;5.22;;
57113;SDS011;42994;51.606;9.988;2023-06-10T08:01:33;8.60;;;4.75;;
57113;SDS011;42994;51.606;9.988;2023-06-10T08:04:01;6.93;;;4.82;;
57113;SDS011;42994;51.606;9.988;2023-06-10T08:06:27;8.30;;;5.18;;
57113;SDS011;42994;51.606;9.988;2023-06-10T08:08:54;7.72;;;5.18;;
57113;SDS011;42994;51.606;9.988;2023-06-10T08:11:22;5.85;;;4.40;;
57113;SDS011;42994;51.606;9.988;2023-06-10T08:13:49;8.30;;;4.25;;
57113;SDS011;42994;51.606;9.988;2023-06-10T08:16:16;9.68;;;4.63;;
57113;SDS011;42994;51.606;9.988;2023-06-10T08:18:43;10.38;;;4.25;;
57113;SDS011;42994;51.606;9.988;2023-06-10T08:21:09;10.18;;;4.65;;
57113;SDS011;42994;51.606;9.988;2023-06-10T08:23:36;9.73;;;4.75;;
57113;SDS011;42994;51.606;9.988;2023-06-10T08:26:02;7.30;;;4.30;;
57113;SDS011;42994;51.606;9.988;2023-06-10T08:28:30;7.50;;;4.57;;
57113;SDS011;42994;51.606;9.988;2023-06-10T08:30:57;9.60;;;4.93;;
57113;SDS011;42994;51.606;9.988;2023-06-10T08:33:24;10.48;;;5.07;;
57113;SDS011;42994;51.606;9.988;2023-06-10T08:35:50;8.02;;;4.57;;
57113;SDS011;42994;51.606;9.988;2023-06-10T08:38:17;9.90;;;4.25;;
57113;SDS011;42994;51.606;9.988;2023-06-10T08:40:43;6.30;;;4.22;;
57113;SDS011;42994;51.606;9.988;2023-06-10T08:43:15;8.68;;;5.40;;
57113;SDS011;42994;51.606;9.988;2023-06-10T08:45:49;7.75;;;4.10;;
57113;SDS011;42994;51.606;9.988;2023-06-10T08:48:21;6.20;;;3.72;;
57113;SDS011;42994;51.606;9.988;2023-06-10T08:50:50;9.02;;;4.93;;
57113;SDS011;42994;51.606;9.988;2023-06-10T08:53:18;8.88;;;4.63;;
57113;SDS011;42994;51.606;9.988;2023-06-10T08:55:46;8.35;;;4.72;;
57113;SDS011;42994;51.606;9.988;2023-06-10T08:58:17;7.70;;;4.50;;
57113;SDS011;42994;51.606;9.988;2023-06-10T09:00:44;8.20;;;4.50;;
57113;SDS011;42994;51.606;9.988;2023-06-10T09:03:12;12.07;;;4.45;;
57113;SDS011;42994;51.606;9.988;2023-06-10T09:05:40;7.25;;;4.80;;
57113;SDS011;42994;51.606;9.988;2023-06-10T09:08:08;8.63;;;4.55;;
57113;SDS011;42994;51.606;9.988;2023-06-10T09:10:35;8.57;;;4.13;;
57113;SDS011;42994;51.606;9.988;2023-06-10T09:13:02;7.82;;;4.55;;
57113;SDS011;42994;51.606;9.988;2023-06-10T09:15:28;8.25;;;4.40;;
57113;SDS011;42994;51.606;9.988;2023-06-10T09:17:55;9.18;;;3.97;;
57113;SDS011;42994;51.606;9.988;2023-06-10T09:20:23;7.00;;;4.97;;
57113;SDS011;42994;51.606;9.988;2023-06-10T09:22:49;15.45;;;4.45;;
57113;SDS011;42994;51.606;9.988;2023-06-10T09:25:16;8.05;;;5.13;;
57113;SDS011;42994;51.606;9.988;2023-06-10T09:27:44;7.10;;;4.82;;
57113;SDS011;42994;51.606;9.988;2023-06-10T09:33:01;8.60;;;5.05;;
57113;SDS011;42994;51.606;9.988;2023-06-10T09:35:30;14.82;;;4.75;;
57113;SDS011;42994;51.606;9.988;2023-06-10T09:37:58;7.20;;;4.63;;
57113;SDS011;42994;51.606;9.988;2023-06-10T09:40:26;6.05;;;4.75;;
57113;SDS011;42994;51.606;9.988;2023-06-10T09:42:54;6.70;;;4.75;;
57113;SDS011;42994;51.606;9.988;2023-06-10T09:45:22;9.50;;;4.68;;
57113;SDS011;42994;51.606;9.988;2023-06-10T09:47:53;7.45;;;4.80;;
57113;SDS011;42994;51.606;9.988;2023-06-10T09:50:20;7.95;;;4.70;;
57113;SDS011;42994;51.606;9.988;2023-06-10T09:52:49;7.80;;;4.68;;
57113;SDS011;42994;51.606;9.988;2023-06-10T09:55:16;5.88;;;4.20;;
57113;SDS011;42994;51.606;9.988;2023-06-10T09:57:44;7.63;;;4.75;;
57113;SDS011;42994;51.606;9.988;2023-06-10T10:02:45;8.40;;;4.78;;
57113;SDS011;42994;51.606;9.988;2023-06-10T10:05:13;7.05;;;5.05;;
57113;SDS011;42994;51.606;9.988;2023-06-10T10:07:40;11.40;;;4.78;;
57113;SDS011;42994;51.606;9.988;2023-06-10T10:10:09;11.90;;;4.88;;
57113;SDS011;42994;51.606;9.988;2023-06-10T10:12:37;9.57;;;4.55;;
57113;SDS011;42994;51.606;9.988;2023-06-10T10:15:05;8.55;;;4.97;;
57113;SDS011;42994;51.606;9.988;2023-06-10T10:17:34;11.25;;;4.28;;
57113;SDS011;42994;51.606;9.988;2023-06-10T10:20:02;7.40;;;5.03;;
57113;SDS011;42994;51.606;9.988;2023-06-10T10:22:31;7.30;;;4.95;;
57113;SDS011;42994;51.606;9.988;2023-06-10T10:25:05;6.82;;;4.90;;
57113;SDS011;42994;51.606;9.988;2023-06-10T10:27:39;6.70;;;5.03;;
57113;SDS011;42994;51.606;9.988;2023-06-10T10:30:09;5.80;;;4.28;;
57113;SDS011;42994;51.606;9.988;2023-06-10T10:32:42;9.73;;;5.15;;
57113;SDS011;42994;51.606;9.988;2023-06-10T10:35:19;5.75;;;4.85;;
57113;SDS011;42994;51.606;9.988;2023-06-10T10:37:49;7.35;;;4.68;;
57113;SDS011;42994;51.606;9.988;2023-06-10T10:40:20;7.53;;;4.90;;
57113;SDS011;42994;51.606;9.988;2023-06-10T10:42:47;8.65;;;5.25;;
57113;SDS011;42994;51.606;9.988;2023-06-10T10:45:15;5.38;;;4.63;;
57113;SDS011;42994;51.606;9.988;2023-06-10T10:47:42;7.95;;;6.03;;
57113;SDS011;42994;51.606;9.988;2023-06-10T10:50:14;7.88;;;5.18;;
57113;SDS011;42994;51.606;9.988;2023-06-10T10:52:51;6.75;;;6.00;;
57113;SDS011;42994;51.606;9.988;2023-06-10T10:55:21;10.48;;;5.30;;
57113;SDS011;42994;51.606;9.988;2023-06-10T10:57:54;9.27;;;5.60;;
57113;SDS011;42994;51.606;9.988;2023-06-10T11:00:28;9.10;;;4.93;;
57113;SDS011;42994;51.606;9.988;2023-06-10T11:03:00;6.32;;;5.00;;
57113;SDS011;42994;51.606;9.988;2023-06-10T11:05:35;5.70;;;5.10;;
57113;SDS011;42994;51.606;9.988;2023-06-10T11:08:04;8.15;;;5.32;;
57113;SDS011;42994;51.606;9.988;2023-06-10T11:10:33;7.22;;;4.95;;
57113;SDS011;42994;51.606;9.988;2023-06-10T11:13:00;8.77;;;6.25;;
57113;SDS011;42994;51.606;9.988;2023-06-10T11:15:32;8.10;;;5.55;;
57113;SDS011;42994;51.606;9.988;2023-06-10T11:18:09;10.15;;;5.30;;
57113;SDS011;42994;51.606;9.988;2023-06-10T11:26:15;7.22;;;4.97;;
57113;SDS011;42994;51.606;9.988;2023-06-10T11:31:39;10.30;;;4.85;;
57113;SDS011;42994;51.606;9.988;2023-06-10T11:34:07;6.68;;;4.78;;
57113;SDS011;42994;51.606;9.988;2023-06-10T11:36:36;7.22;;;5.05;;
57113;SDS011;42994;51.606;9.988;2023-06-10T11:39:05;9.15;;;5.28;;
57113;SDS011;42994;51.606;9.988;2023-06-10T11:41:34;7.00;;;5.20;;
57113;SDS011;42994;51.606;9.988;2023-06-10T11:44:02;8.95;;;4.80;;
57113;SDS011;42994;51.606;9.988;2023-06-10T11:46:30;5.18;;;4.70;;
57113;SDS011;42994;51.606;9.988;2023-06-10T11:48:57;5.57;;;5.03;;
57113;SDS011;42994;51.606;9.988;2023-06-10T11:51:25;8.32;;;5.03;;
57113;SDS011;42994;51.606;9.988;2023-06-10T11:53:52;6.45;;;4.68;;
57113;SDS011;42994;51.606;9.988;2023-06-10T11:56:19;6.85;;;5.20;;
57113;SDS011;42994;51.606;9.988;2023-06-10T11:58:51;9.77;;;5.25;;
57113;SDS011;42994;51.606;9.988;2023-06-10T12:01:19;8.07;;;5.18;;
57113;SDS011;42994;51.606;9.988;2023-06-10T12:03:47;10.20;;;5.28;;
57113;SDS011;42994;51.606;9.988;2023-06-10T12:06:14;6.47;;;5.25;;
57113;SDS011;42994;51.606;9.988;2023-06-10T12:08:41;8.32;;;4.72;;
57113;SDS011;42994;51.606;9.988;2023-06-10T12:11:08;6.75;;;5.05;;
57113;SDS011;42994;51.606;9.988;2023-06-10T12:13:36;6.40;;;4.88;;
57113;SDS011;42994;51.606;9.988;2023-06-10T12:16:07;6.82;;;4.93;;
57113;SDS011;42994;51.606;9.988;2023-06-10T12:18:35;7.15;;;5.00;;
57113;SDS011;42994;51.606;9.988;2023-06-10T12:21:01;7.63;;;4.88;;
57113;SDS011;42994;51.606;9.988;2023-06-10T12:23:29;6.80;;;5.07;;
57113;SDS011;42994;51.606;9.988;2023-06-10T12:25:55;9.02;;;5.40;;
57113;SDS011;42994;51.606;9.988;2023-06-10T12:28:26;8.25;;;4.78;;
57113;SDS011;42994;51.606;9.988;2023-06-10T12:31:05;5.70;;;4.93;;
57113;SDS011;42994;51.606;9.988;2023-06-10T12:33:34;12.73;;;5.53;;
57113;SDS011;42994;51.606;9.988;2023-06-10T12:36:00;7.55;;;5.25;;
57113;SDS011;42994;51.606;9.988;2023-06-10T12:38:27;6.72;;;5.38;;
57113;SDS011;42994;51.606;9.988;2023-06-10T12:40:54;7.57;;;4.88;;
57113;SDS011;42994;51.606;9.988;2023-06-10T12:43:27;6.72;;;5.07;;
57113;SDS011;42994;51.606;9.988;2023-06-10T12:45:54;9.82;;;4.97;;
57113;SDS011;42994;51.606;9.988;2023-06-10T12:48:21;6.00;;;5.05;;
57113;SDS011;42994;51.606;9.988;2023-06-10T12:50:51;7.05;;;5.18;;
57113;SDS011;42994;51.606;9.988;2023-06-10T12:53:19;9.48;;;5.13;;
57113;SDS011;42994;51.606;9.988;2023-06-10T12:55:48;6.90;;;4.90;;
57113;SDS011;42994;51.606;9.988;2023-06-10T12:58:14;8.93;;;5.43;;
57113;SDS011;42994;51.606;9.988;2023-06-10T13:00:41;10.88;;;5.47;;
57113;SDS011;42994;51.606;9.988;2023-06-10T13:03:08;5.78;;;4.90;;
57113;SDS011;42994;51.606;9.988;2023-06-10T13:05:36;9.73;;;4.93;;
57113;SDS011;42994;51.606;9.988;2023-06-10T13:08:05;4.93;;;4.45;;
57113;SDS011;42994;51.606;9.988;2023-06-10T13:10:35;7.47;;;4.70;;
57113;SDS011;42994;51.606;9.988;2023-06-10T13:13:02;9.00;;;5.40;;
57113;SDS011;42994;51.606;9.988;2023-06-10T13:15:31;6.00;;;5.22;;
57113;SDS011;42994;51.606;9.988;2023-06-10T13:18:01;4.68;;;4.28;;
57113;SDS011;42994;51.606;9.988;2023-06-10T13:20:29;12.93;;;7.03;;
57113;SDS011;42994;51.606;9.988;2023-06-10T13:22:56;10.07;;;5.18;;
57113;SDS011;42994;51.606;9.988;2023-06-10T13:25:24;10.20;;;5.32;;
57113;SDS011;42994;51.606;9.988;2023-06-10T13:27:51;5.38;;;4.80;;
57113;SDS011;42994;51.606;9.988;2023-06-10T13:30:17;5.68;;;4.82;;
57113;SDS011;42994;51.606;9.988;2023-06-10T13:32:44;6.60;;;4.95;;
57113;SDS011;42994;51.606;9.988;2023-06-10T13:35:10;5.95;;;5.05;;
57113;SDS011;42994;51.606;9.988;2023-06-10T13:37:37;10.35;;;4.90;;
57113;SDS011;42994;51.606;9.988;2023-06-10T13:40:04;6.72;;;4.85;;
57113;SDS011;42994;51.606;9.988;2023-06-10T13:42:34;5.25;;;4.65;;
57113;SDS011;42994;51.606;9.988;2023-06-10T13:45:01;7.32;;;4.72;;
57113;SDS011;42994;51.606;9.988;2023-06-10T13:47:27;6.75;;;3.83;;
57113;SDS011;42994;51.606;9.988;2023-06-10T13:49:54;3.42;;;3.13;;
57113;SDS011;42994;51.606;9.988;2023-06-10T13:52:20;4.82;;;4.25;;
57113;SDS011;42994;51.606;9.988;2023-06-10T13:54:47;6.20;;;4.35;;
57113;SDS011;42994;51.606;9.988;2023-06-10T13:57:15;4.40;;;4.00;;
57113;SDS011;42994;51.606;9.988;2023-06-10T13:59:43;8.48;;;3.67;;
57113;SDS011;42994;51.606;9.988;2023-06-10T14:02:10;5.43;;;3.83;;
57113;SDS011;42994;51.606;9.988;2023-06-10T14:04:36;6.95;;;4.32;;
57113;SDS011;42994;51.606;9.988;2023-06-10T14:07:03;5.38;;;3.92;;
57113;SDS011;42994;51.606;9.988;2023-06-10T14:09:30;10.18;;;4.32;;
57113;SDS011;42994;51.606;9.988;2023-06-10T14:11:56;6.65;;;4.78;;
57113;SDS011;42994;51.606;9.988;2023-06-10T14:14:23;5.65;;;4.70;;
57113;SDS011;42994;51.606;9.988;2023-06-10T14:16:51;4.20;;;3.90;;
57113;SDS011;42994;51.606;9.988;2023-06-10T14:19:18;5.60;;;4.28;;
57113;SDS011;42994;51.606;9.988;2023-06-10T14:21:45;4.88;;;3.90;;
57113;SDS011;42994;51.606;9.988;2023-06-10T14:24:12;5.15;;;4.38;;
57113;SDS011;42994;51.606;9.988;2023-06-10T14:26:38;5.03;;;4.15;;
57113;SDS011;42994;51.606;9.988;2023-06-10T14:29:05;7.55;;;4.30;;
57113;SDS011;42994;51.606;9.988;2023-06-10T14:31:32;8.07;;;4.10;;
57113;SDS011;42994;51.606;9.988;2023-06-10T14:34:00;5.22;;;4.50;;
57113;SDS011;42994;51.606;9.988;2023-06-10T14:36:26;7.30;;;4.55;;
57113;SDS011;42994;51.606;9.988;2023-06-10T14:38:53;7.00;;;4.30;;
57113;SDS011;42994;51.606;9.988;2023-06-10T14:41:20;6.32;;;4.32;;
57113;SDS011;42994;51.606;9.988;2023-06-10T14:43:48;9.60;;;4.97;;
57113;SDS011;42994;51.606;9.988;2023-06-10T14:46:15;5.82;;;4.30;;
57113;SDS011;42994;51.606;9.988;2023-06-10T14:48:41;6.07;;;5.45;;
57113;SDS011;42994;51.606;9.988;2023-06-10T14:51:09;6.13;;;5.18;;
57113;SDS011;42994;51.606;9.988;2023-06-10T14:53:36;6.45;;;4.80;;
57113;SDS011;42994;51.606;9.988;2023-06-10T14:56:03;6.40;;;5.15;;
57113;SDS011;42994;51.606;9.988;2023-06-10T14:58:30;6.43;;;4.78;;
57113;SDS011;42994;51.606;9.988;2023-06-10T15:00:56;5.70;;;4.68;;
57113;SDS011;42994;51.606;9.988;2023-06-10T15:03:23;7.00;;;4.38;;
57113;SDS011;42994;51.606;9.988;2023-06-10T15:05:50;7.45;;;4.88;;
57113;SDS011;42994;51.606;9.988;2023-06-10T15:08:18;10.52;;;4.70;;